Time,TemperatureF,DewpointF,PressureIn,WindDirection,WindDirectionDegrees,WindSpeedMPH,WindSpeedGustMPH,Humidity,HourlyPrecipIn,Conditions,Clouds,dailyrainin,SolarRadiationWatts/m^2,SoftwareType,DateUTC
2013-04-30 00:21:00,26.0,17.0,-100.00,WNW,302,3.0,5.0,68,0.00,,,0.05,0.000000,,2013-04-30 08:21:00,
2013-04-30 00:32:00,26.0,17.0,-100.00,WNW,302,3.0,5.0,68,0.00,,,0.05,0.000000,,2013-04-30 08:32:00,
2013-04-30 00:42:00,26.0,17.0,-100.00,WNW,302,3.0,5.0,68,0.00,,,0.05,0.000000,,2013-04-30 08:42:00,
2013-04-30 00:52:00,26.0,17.0,-100.00,WNW,302,3.0,5.0,68,0.00,,,0.05,0.000000,,2013-04-30 08:52:00,
2013-04-30 01:22:00,26.0,19.0,-100.00,South,184,2.0,4.0,75,0.00,,,0.05,0.000000,,2013-04-30 09:22:00,
2013-04-30 01:33:00,26.0,19.0,-100.00,South,184,2.0,4.0,75,0.00,,,0.05,0.000000,,2013-04-30 09:33:00,
2013-04-30 01:43:00,26.0,19.0,-100.00,South,184,2.0,4.0,75,0.00,,,0.05,0.000000,,2013-04-30 09:43:00,
2013-04-30 01:52:00,26.0,19.0,-100.00,South,184,2.0,4.0,75,0.00,,,0.05,0.000000,,2013-04-30 09:52:00,
2013-04-30 02:22:00,24.0,18.0,-100.00,SSW,213,1.0,5.0,78,0.00,,,0.05,0.000000,,2013-04-30 10:22:00,
2013-04-30 02:32:00,24.0,18.0,-100.00,SSW,213,1.0,5.0,78,0.00,,,0.05,0.000000,,2013-04-30 10:32:00,
2013-04-30 02:41:00,24.0,18.0,-100.00,SSW,213,1.0,5.0,78,0.00,,,0.05,0.000000,,2013-04-30 10:41:00,
2013-04-30 02:52:00,24.0,18.0,-100.00,SSW,213,1.0,5.0,78,0.00,,,0.05,0.000000,,2013-04-30 10:52:00,
2013-04-30 03:21:00,24.0,20.0,-100.00,South,190,0.0,4.0,85,0.00,,,0.05,0.000000,,2013-04-30 11:21:00,
2013-04-30 03:31:00,24.0,20.0,-100.00,South,190,0.0,4.0,85,0.00,,,0.05,0.000000,,2013-04-30 11:31:00,
2013-04-30 03:42:00,24.0,20.0,-100.00,South,190,0.0,4.0,85,0.00,,,0.05,0.000000,,2013-04-30 11:42:00,
2013-04-30 03:51:00,24.0,20.0,-100.00,South,190,0.0,4.0,85,0.00,,,0.05,0.000000,,2013-04-30 11:51:00,
2013-04-30 04:21:00,24.0,20.0,-100.00,SSW,195,2.0,3.0,86,0.00,,,0.05,0.000000,,2013-04-30 12:21:00,
2013-04-30 04:31:00,24.0,20.0,-100.00,SSW,195,2.0,3.0,86,0.00,,,0.05,0.000000,,2013-04-30 12:31:00,
2013-04-30 04:41:00,24.0,20.0,-100.00,SSW,195,2.0,3.0,86,0.00,,,0.05,0.000000,,2013-04-30 12:41:00,
2013-04-30 04:51:00,24.0,20.0,-100.00,SSW,195,2.0,3.0,86,0.00,,,0.05,0.000000,,2013-04-30 12:51:00,
2013-04-30 07:21:00,31.0,25.0,-100.00,SE,133,1.0,3.0,79,-99.99,,,0.05,109.000000,,2013-04-30 15:21:00,
2013-04-30 07:32:00,31.0,25.0,-100.00,SE,133,1.0,3.0,79,-99.99,,,0.05,109.000000,,2013-04-30 15:32:00,
2013-04-30 07:42:00,31.0,25.0,-100.00,SE,133,1.0,3.0,79,-99.99,,,0.05,109.000000,,2013-04-30 15:42:00,
2013-04-30 07:52:00,31.0,25.0,-100.00,SE,133,1.0,3.0,79,-99.99,,,0.05,109.000000,,2013-04-30 15:52:00,
2013-04-30 08:22:00,33.0,23.0,-100.00,SSE,162,2.0,5.0,66,0.00,,,0.05,276.000000,,2013-04-30 16:22:00,
2013-04-30 08:33:00,33.0,23.0,-100.00,SSE,162,2.0,5.0,66,0.00,,,0.05,276.000000,,2013-04-30 16:33:00,
2013-04-30 08:42:00,33.0,23.0,-100.00,SSE,162,2.0,5.0,66,0.00,,,0.05,276.000000,,2013-04-30 16:42:00,
2013-04-30 08:52:00,33.0,23.0,-100.00,SSE,162,2.0,5.0,66,0.00,,,0.05,276.000000,,2013-04-30 16:52:00,
2013-04-30 09:22:00,37.0,24.0,-100.00,SE,134,4.0,8.0,60,0.00,,,0.04,379.000000,,2013-04-30 17:22:00,
2013-04-30 09:32:00,37.0,24.0,-100.00,SE,134,4.0,8.0,60,0.00,,,0.04,379.000000,,2013-04-30 17:32:00,
2013-04-30 09:42:00,37.0,24.0,-100.00,SE,134,4.0,8.0,60,0.00,,,0.04,379.000000,,2013-04-30 17:42:00,
2013-04-30 09:52:00,37.0,24.0,-100.00,SE,134,4.0,8.0,60,0.00,,,0.04,379.000000,,2013-04-30 17:52:00,
2013-04-30 10:22:00,39.0,23.0,-100.00,ESE,113,7.0,11.0,53,0.00,,,0.04,552.000000,,2013-04-30 18:22:00,
2013-04-30 10:32:00,39.0,23.0,-100.00,ESE,113,7.0,11.0,53,0.00,,,0.04,552.000000,,2013-04-30 18:32:00,
2013-04-30 10:41:00,39.0,23.0,-100.00,ESE,113,7.0,11.0,53,0.00,,,0.04,552.000000,,2013-04-30 18:41:00,
2013-04-30 10:51:00,39.0,23.0,-100.00,ESE,113,7.0,11.0,53,0.00,,,0.04,552.000000,,2013-04-30 18:51:00,
2013-04-30 11:21:00,40.0,22.0,-100.00,SE,145,6.0,11.0,49,0.00,,,0.04,403.000000,,2013-04-30 19:21:00,
2013-04-30 11:32:00,40.0,22.0,-100.00,SE,145,6.0,11.0,49,0.00,,,0.04,403.000000,,2013-04-30 19:32:00,
2013-04-30 11:41:00,40.0,22.0,-100.00,SE,145,6.0,11.0,49,0.00,,,0.04,403.000000,,2013-04-30 19:41:00,
2013-04-30 11:52:00,40.0,22.0,-100.00,SE,145,6.0,11.0,49,0.00,,,0.04,403.000000,,2013-04-30 19:52:00,
2013-04-30 12:21:00,39.0,23.0,-100.00,SSE,157,6.0,11.0,52,0.00,,,0.04,361.000000,,2013-04-30 20:21:00,
2013-04-30 12:32:00,39.0,23.0,-100.00,SSE,157,6.0,11.0,52,0.00,,,0.04,361.000000,,2013-04-30 20:32:00,
2013-04-30 12:42:00,39.0,23.0,-100.00,SSE,157,6.0,11.0,52,0.00,,,0.04,361.000000,,2013-04-30 20:42:00,
2013-04-30 12:52:00,39.0,23.0,-100.00,SSE,157,6.0,11.0,52,0.00,,,0.04,361.000000,,2013-04-30 20:52:00,
2013-04-30 13:22:00,37.0,29.0,-100.00,SE,126,6.0,12.0,74,0.00,,,0.03,266.000000,,2013-04-30 21:22:00,
2013-04-30 13:32:00,37.0,29.0,-100.00,SE,126,6.0,12.0,74,0.00,,,0.03,266.000000,,2013-04-30 21:32:00,
2013-04-30 13:42:00,37.0,29.0,-100.00,SE,126,6.0,12.0,74,0.00,,,0.03,266.000000,,2013-04-30 21:42:00,
2013-04-30 13:52:00,37.0,29.0,-100.00,SE,126,6.0,12.0,74,0.00,,,0.03,266.000000,,2013-04-30 21:52:00,
2013-04-30 14:22:00,38.0,27.0,-100.00,SSE,151,6.0,11.0,65,0.00,,,0.03,275.000000,,2013-04-30 22:22:00,
2013-04-30 14:32:00,38.0,27.0,-100.00,SSE,151,6.0,11.0,65,0.00,,,0.03,275.000000,,2013-04-30 22:32:00,
2013-04-30 14:41:00,38.0,27.0,-100.00,SSE,151,6.0,11.0,65,0.00,,,0.03,275.000000,,2013-04-30 22:41:00,
2013-04-30 14:52:00,38.0,27.0,-100.00,SSE,151,6.0,11.0,65,0.00,,,0.03,275.000000,,2013-04-30 22:52:00,
2013-04-30 15:21:00,37.0,30.0,-100.00,SE,132,5.0,12.0,76,0.00,,,0.02,174.000000,,2013-04-30 23:21:00,
2013-04-30 15:32:00,37.0,30.0,-100.00,SE,132,5.0,12.0,76,0.00,,,0.02,174.000000,,2013-04-30 23:32:00,
2013-04-30 15:42:00,37.0,30.0,-100.00,SE,132,5.0,12.0,76,0.00,,,0.02,174.000000,,2013-04-30 23:42:00,
2013-04-30 15:52:00,37.0,30.0,-100.00,SE,132,5.0,12.0,76,0.00,,,0.02,174.000000,,2013-04-30 23:52:00,
2013-04-30 16:21:00,36.0,33.0,-100.00,SSE,151,5.0,11.0,88,0.01,,,0.02,194.000000,,2013-05-01 00:21:00,
2013-04-30 16:32:00,36.0,33.0,-100.00,SSE,151,5.0,11.0,88,0.01,,,0.02,194.000000,,2013-05-01 00:32:00,
2013-04-30 16:42:00,36.0,33.0,-100.00,SSE,151,5.0,11.0,88,0.01,,,0.02,194.000000,,2013-05-01 00:42:00,
2013-04-30 16:51:00,36.0,33.0,-100.00,SSE,151,5.0,11.0,88,0.01,,,0.02,194.000000,,2013-05-01 00:51:00,
2013-04-30 17:21:00,36.0,34.0,-100.00,SE,129,6.0,11.0,91,0.00,,,-99.99,120.000000,,2013-05-01 01:21:00,
2013-04-30 17:31:00,36.0,34.0,-100.00,SE,129,6.0,11.0,91,0.00,,,-99.99,120.000000,,2013-05-01 01:31:00,
2013-04-30 17:41:00,36.0,34.0,-100.00,SE,129,6.0,11.0,91,0.00,,,-99.99,120.000000,,2013-05-01 01:41:00,
2013-04-30 17:52:00,36.0,34.0,-100.00,SE,129,6.0,11.0,91,0.00,,,-99.99,120.000000,,2013-05-01 01:52:00,
2013-04-30 18:21:00,36.0,34.0,-100.00,SE,124,5.0,9.0,92,0.00,,,0.01,57.000000,,2013-05-01 02:21:00,
2013-04-30 18:32:00,36.0,34.0,-100.00,SE,124,5.0,9.0,92,0.00,,,0.01,57.000000,,2013-05-01 02:32:00,
2013-04-30 18:42:00,36.0,34.0,-100.00,SE,124,5.0,9.0,92,0.00,,,0.01,57.000000,,2013-05-01 02:42:00,
2013-04-30 18:51:00,36.0,34.0,-100.00,SE,124,5.0,9.0,92,0.00,,,0.01,57.000000,,2013-05-01 02:51:00,
2013-04-30 19:21:00,36.0,32.0,-100.00,SE,133,6.0,14.0,86,0.01,,,0.02,43.000000,,2013-05-01 03:21:00,
2013-04-30 19:33:00,36.0,32.0,-100.00,SE,133,6.0,14.0,86,0.01,,,0.02,43.000000,,2013-05-01 03:33:00,
2013-04-30 19:42:00,36.0,32.0,-100.00,SE,133,6.0,14.0,86,0.01,,,0.02,43.000000,,2013-05-01 03:42:00,
2013-04-30 19:52:00,36.0,32.0,-100.00,SE,133,6.0,14.0,86,0.01,,,0.02,43.000000,,2013-05-01 03:52:00,
2013-04-30 20:22:00,36.0,34.0,-100.00,SE,144,5.0,11.0,93,0.00,,,-99.99,28.000000,,2013-05-01 04:22:00,
2013-04-30 20:32:00,36.0,34.0,-100.00,SE,144,5.0,11.0,93,0.00,,,-99.99,28.000000,,2013-05-01 04:32:00,
2013-04-30 20:42:00,36.0,34.0,-100.00,SE,144,5.0,11.0,93,0.00,,,-99.99,28.000000,,2013-05-01 04:42:00,
2013-04-30 20:52:00,36.0,34.0,-100.00,SE,144,5.0,11.0,93,0.00,,,-99.99,28.000000,,2013-05-01 04:52:00,
2013-04-30 21:21:00,36.0,34.0,-100.00,SE,141,5.0,9.0,91,0.00,,,-99.99,4.000000,,2013-05-01 05:21:00,
2013-04-30 21:32:00,36.0,34.0,-100.00,SE,141,5.0,9.0,91,0.00,,,-99.99,4.000000,,2013-05-01 05:32:00,
2013-04-30 21:41:00,36.0,34.0,-100.00,SE,141,5.0,9.0,91,0.00,,,-99.99,4.000000,,2013-05-01 05:41:00,
2013-04-30 21:52:00,36.0,34.0,-100.00,SE,141,5.0,9.0,91,0.00,,,-99.99,4.000000,,2013-05-01 05:52:00,
2013-04-30 22:22:00,35.0,32.0,-100.00,SE,131,4.0,10.0,90,0.00,,,0.02,0.000000,,2013-05-01 06:22:00,
2013-04-30 22:32:00,35.0,32.0,-100.00,SE,131,4.0,10.0,90,0.00,,,0.02,0.000000,,2013-05-01 06:32:00,
2013-04-30 22:42:00,35.0,32.0,-100.00,SE,131,4.0,10.0,90,0.00,,,0.02,0.000000,,2013-05-01 06:42:00,
2013-04-30 22:51:00,35.0,32.0,-100.00,SE,131,4.0,10.0,90,0.00,,,0.02,0.000000,,2013-05-01 06:51:00,
2013-04-30 23:21:00,36.0,34.0,-100.00,SE,130,7.0,17.0,92,0.00,,,0.02,0.000000,,2013-05-01 07:21:00,
2013-04-30 23:32:00,36.0,34.0,-100.00,SE,130,7.0,17.0,92,0.00,,,0.02,0.000000,,2013-05-01 07:32:00,
2013-04-30 23:41:00,36.0,34.0,-100.00,SE,130,7.0,17.0,92,0.00,,,0.02,0.000000,,2013-05-01 07:41:00,
2013-04-30 23:52:00,36.0,34.0,-100.00,SE,130,7.0,17.0,92,0.00,,,0.02,0.000000,,2013-05-01 07:52:00,